KIMT/IMT METAR and TAF weather

Enter ICAO airport designator
Station Type Date Time Source
KIMT METAR 2020/09/21 04:54 UTC NOAA

KIMT 210454Z AUTO 16008KT 10SM CLR 12/07 A3030 RMK AO2 SLP262 T01220072


Station Type Date Time Source
KIMT Decoded METAR 2020/09/21 04:54 UTC NOAA

IRON MOUNTAIN FORD AIRPORT, MI, United States (KIMT) 45-49N 88-07W 349M
Sep 21, 2020 - 12:54 AM EDT / 2020.09.21 0454 UTC
Wind: from the SSE (160 degrees) at 9 MPH (8 KT):0
Visibility: 10 mile(s):0
Sky conditions: clear
Temperature: 54.0 F (12.2 C)
Dew Point: 45.0 F (7.2 C)
Relative Humidity: 71%
Pressure (altimeter): 30.3 in. Hg (1026 hPa)
ob: KIMT 210454Z AUTO 16008KT 10SM CLR 12/07 A3030 RMK AO2 SLP262 T01220072
cycle: 5

Station Type Date Time Source
KIMT TAF UTC NOAA

Error!

Example: see airport list